Time;durP1;ratioP1;P1;durP2;ratioP2;P2;SDS_P1;SDS_P2;PMS_P1;PMS_P2;Temp;Humidity;BMP_temperature;BMP_pressure;BME280_temperature;BME280_humidity;BME280_pressure;Samples;Min_cycle;Max_cycle;Signal;HPM_P1;HPM_P2
2022/04/17 00:01:49;;;;;;;;;7.50;4.00;;;;;13.40;52.03;102384.81;4970819;28;45366;-70
2022/04/17 00:04:15;;;;;;;;;4.50;4.00;;;;;13.36;52.30;102384.94;4996982;28;46125;-69
2022/04/17 00:06:41;;;;;;;;;4.25;4.25;;;;;13.32;51.93;102382.41;4970041;28;45499;-70
2022/04/17 00:09:06;;;;;;;;;5.00;5.00;;;;;13.27;52.15;102379.03;4987850;28;45813;-69
2022/04/17 00:11:34;;;;;;;;;5.00;4.00;;;;;13.24;52.24;102378.25;4970657;28;45456;-69
2022/04/17 00:13:59;;;;;;;;;4.00;3.00;;;;;13.20;52.19;102379.19;4970479;28;46353;-69
2022/04/17 00:16:25;;;;;;;;;8.50;6.00;;;;;13.16;52.38;102374.94;5016026;28;45359;-69
2022/04/17 00:18:50;;;;;;;;;4.00;4.00;;;;;13.11;52.16;102372.41;4961767;28;45326;-69
2022/04/17 00:21:15;;;;;;;;;5.25;5.25;;;;;13.07;52.26;102365.47;4965269;28;54272;-69
2022/04/17 00:23:43;;;;;;;;;7.75;7.75;;;;;13.03;52.20;102362.03;4970019;28;55136;-69
2022/04/17 00:26:09;;;;;;;;;8.25;5.50;;;;;13.00;52.06;102364.78;4970807;28;45826;-69
2022/04/17 00:28:34;;;;;;;;;5.75;5.50;;;;;12.98;52.35;102371.00;5010673;28;46926;-70
2022/04/17 00:30:59;;;;;;;;;7.00;6.00;;;;;12.93;52.34;102371.13;4971984;28;60675;-69
2022/04/17 00:33:25;;;;;;;;;6.00;5.75;;;;;12.91;52.28;102375.59;4970005;28;46196;-69
2022/04/17 00:35:50;;;;;;;;;6.00;6.00;;;;;12.88;52.13;102369.50;4969875;28;58470;-69
2022/04/17 00:38:15;;;;;;;;;5.00;5.00;;;;;12.85;52.81;102365.19;5014656;28;55509;-70
2022/04/17 00:40:40;;;;;;;;;6.00;5.00;;;;;12.82;52.57;102364.41;4970233;28;48814;-69
2022/04/17 00:43:22;;;;;;;;;4.00;4.00;;;;;12.78;52.59;102353.06;4972162;28;49465;-69
2022/04/17 00:45:47;;;;;;;;;6.00;4.75;;;;;12.74;52.74;102360.19;4989869;28;45449;-69
2022/04/17 00:48:12;;;;;;;;;5.75;5.75;;;;;12.71;52.85;102362.91;5017829;27;45392;-70
2022/04/17 00:50:37;;;;;;;;;5.33;5.33;;;;;12.68;52.69;102349.78;5014202;28;64688;-69
2022/04/17 00:53:03;;;;;;;;;6.75;6.00;;;;;12.66;52.68;102354.25;4969789;28;46443;-69
2022/04/17 00:55:29;;;;;;;;;7.00;6.00;;;;;12.62;52.49;102352.59;4972395;28;45686;-69
2022/04/17 00:57:54;;;;;;;;;7.75;5.00;;;;;12.56;52.73;102350.09;4969027;28;45408;-69
2022/04/17 01:00:19;;;;;;;;;6.00;6.00;;;;;12.51;53.30;102342.31;4970018;28;47016;-69
2022/04/17 01:02:46;;;;;;;;;5.25;4.00;;;;;12.48;52.97;102345.03;4976787;28;46139;-69
2022/04/17 01:05:11;;;;;;;;;5.75;4.75;;;;;12.44;52.79;102348.66;4970136;28;45864;-69
2022/04/17 01:07:37;;;;;;;;;8.25;5.00;;;;;12.41;53.33;102338.16;4970501;28;45436;-69
2022/04/17 01:10:05;;;;;;;;;7.75;4.00;;;;;12.40;53.80;102348.75;5041940;28;45499;-69
2022/04/17 01:12:30;;;;;;;;;6.50;4.50;;;;;12.37;53.41;102344.44;4973700;27;46271;-70
2022/04/17 01:14:56;;;;;;;;;5.00;5.00;;;;;12.35;53.48;102350.66;4967238;28;45519;-69
2022/04/17 01:17:21;;;;;;;;;4.00;4.00;;;;;12.31;53.60;102346.34;4972711;28;45395;-69
2022/04/17 01:19:47;;;;;;;;;5.00;4.75;;;;;12.27;53.05;102348.22;4974840;28;45410;-69
2022/04/17 01:22:12;;;;;;;;;6.00;5.00;;;;;12.23;53.04;102341.28;4974824;28;46169;-70
2022/04/17 01:27:24;;;;;;;;;7.50;4.25;;;;;12.14;53.01;102339.72;4972728;28;45383;-69
2022/04/17 01:29:51;;;;;;;;;4.75;4.75;;;;;12.11;53.19;102328.38;4978401;28;45487;-70
2022/04/17 01:32:17;;;;;;;;;6.00;5.00;;;;;12.10;53.27;102329.28;4970265;28;46253;-70
2022/04/17 01:34:42;;;;;;;;;5.25;4.75;;;;;12.05;53.08;102317.97;4990381;28;45582;-69
2022/04/17 01:37:07;;;;;;;;;4.75;2.75;;;;;12.04;53.00;102324.16;4974019;28;57665;-69
2022/04/17 01:39:33;;;;;;;;;6.50;3.00;;;;;12.02;52.57;102329.47;4970513;28;56265;-69
2022/04/17 01:41:59;;;;;;;;;4.00;4.00;;;;;11.98;53.05;102322.53;4974140;28;46701;-69
2022/04/17 01:44:27;;;;;;;;;2.50;2.50;;;;;11.94;52.85;102327.00;4972505;28;45438;-69
2022/04/17 01:46:52;;;;;;;;;3.25;2.75;;;;;11.93;52.92;102324.41;4978454;28;45363;-69
2022/04/17 01:49:19;;;;;;;;;3.50;3.50;;;;;11.91;53.13;102318.34;4976534;28;57349;-69
2022/04/17 01:51:46;;;;;;;;;4.75;4.75;;;;;11.88;53.00;102319.25;5003419;28;46169;-69
2022/04/17 01:54:14;;;;;;;;;2.50;2.00;;;;;11.86;53.13;102320.19;4994149;27;45425;-69
2022/04/17 01:56:40;;;;;;;;;3.00;3.00;;;;;11.83;53.06;102318.50;4978910;28;45354;-69
2022/04/17 01:59:07;;;;;;;;;5.50;4.00;;;;;11.80;52.40;102315.00;4974354;28;45600;-69
2022/04/17 02:01:37;;;;;;;;;4.50;3.00;;;;;11.79;52.22;102314.16;4967256;28;46954;-69
2022/04/17 02:04:04;;;;;;;;;3.00;3.00;;;;;11.79;52.48;102313.28;4973120;28;45367;-69
2022/04/17 02:06:30;;;;;;;;;4.00;4.00;;;;;11.76;52.48;102322.13;4974266;28;45489;-69
2022/04/17 02:08:55;;;;;;;;;2.75;2.50;;;;;11.73;52.58;102315.16;4971296;28;45521;-69
2022/04/17 02:11:22;;;;;;;;;3.75;3.25;;;;;11.70;52.68;102317.00;5008692;28;45440;-69
2022/04/17 02:13:51;;;;;;;;;6.25;5.00;;;;;11.65;52.61;102311.84;4972318;28;47845;-69
2022/04/17 02:16:17;;;;;;;;;4.25;4.25;;;;;11.63;52.58;102316.25;4974048;28;45436;-70
2022/04/17 02:18:44;;;;;;;;;3.00;3.00;;;;;11.60;52.93;102315.47;4971213;28;45488;-69
2022/04/17 02:21:09;;;;;;;;;4.00;4.00;;;;;11.58;52.88;102314.63;4972073;28;45361;-69
2022/04/17 02:23:35;;;;;;;;;3.50;3.00;;;;;11.55;53.01;102312.94;4972101;28;45476;-69
2022/04/17 02:26:01;;;;;;;;;5.00;4.50;;;;;11.53;52.54;102313.88;4973872;28;45385;-69
2022/04/17 02:28:27;;;;;;;;;3.75;3.75;;;;;11.50;52.67;102314.81;4979989;28;45308;-69
2022/04/17 02:30:52;;;;;;;;;3.00;3.00;;;;;11.49;52.63;102311.31;4973670;28;46335;-70
2022/04/17 02:33:18;;;;;;;;;3.75;3.00;;;;;11.47;52.82;102299.94;4976136;28;45525;-69
2022/04/17 02:35:43;;;;;;;;;4.50;3.00;;;;;11.45;53.21;102300.88;5013532;28;45723;-69
2022/04/17 02:38:08;;;;;;;;;4.00;4.00;;;;;11.43;53.05;102305.28;4971528;28;54163;-69
2022/04/17 02:40:34;;;;;;;;;4.50;2.00;;;;;11.41;52.77;102301.84;4971987;28;46485;-69
2022/04/17 02:42:59;;;;;;;;;3.75;3.50;;;;;11.37;52.65;102297.53;4973611;28;45412;-69
2022/04/17 02:45:26;;;;;;;;;4.00;4.00;;;;;11.33;52.89;102288.84;4976084;28;45356;-69
2022/04/17 02:47:52;;;;;;;;;3.00;3.00;;;;;11.32;52.80;102294.13;4973055;28;47619;-69
2022/04/17 02:50:19;;;;;;;;;4.50;3.00;;;;;11.28;52.91;102288.09;4970912;28;45921;-69
2022/04/17 02:52:45;;;;;;;;;5.00;4.00;;;;;11.26;53.23;102289.00;4971087;28;45945;-69
2022/04/17 02:55:11;;;;;;;;;4.25;3.75;;;;;11.22;53.09;102288.19;4973774;28;45402;-69
2022/04/17 02:57:37;;;;;;;;;4.00;4.00;;;;;11.18;52.71;102283.91;4996402;28;45284;-69
2022/04/17 03:00:07;;;;;;;;;3.25;3.00;;;;;11.16;52.95;102288.31;4999757;27;45516;-69
2022/04/17 03:05:36;;;;;;;;;3.00;2.00;;;;;11.08;52.79;102279.75;4970149;28;45429;-69
2022/04/17 03:08:04;;;;;;;;;3.50;3.50;;;;;11.05;53.07;102278.03;4959018;28;45359;-69
2022/04/17 03:10:30;;;;;;;;;2.50;2.50;;;;;11.01;53.29;102273.72;4971580;28;45527;-69
2022/04/17 03:12:56;;;;;;;;;3.00;3.00;;;;;10.96;53.36;102265.03;4973093;28;45848;-69
2022/04/17 03:15:22;;;;;;;;;4.50;4.00;;;;;10.93;53.47;102262.50;4970596;28;45315;-69
2022/04/17 03:17:48;;;;;;;;;4.25;4.00;;;;;10.90;53.58;102265.16;5024669;28;45239;-69
2022/04/17 03:20:14;;;;;;;;;3.00;3.00;;;;;10.85;53.49;102264.41;5033984;27;55322;-69
2022/04/17 03:22:43;;;;;;;;;5.75;4.00;;;;;10.80;53.69;102261.00;4968390;28;45745;-69
2022/04/17 03:25:09;;;;;;;;;3.00;3.00;;;;;10.77;53.86;102264.56;4998749;28;45404;-69
2022/04/17 03:27:34;;;;;;;;;3.50;3.00;;;;;10.75;53.55;102260.22;4972691;28;45331;-69
2022/04/17 03:29:59;;;;;;;;;7.00;3.75;;;;;10.73;53.99;102256.75;4971374;28;47030;-69
2022/04/17 03:32:25;;;;;;;;;4.75;3.75;;;;;10.69;54.13;102256.81;4983200;28;53288;-69
2022/04/17 03:34:50;;;;;;;;;2.00;2.00;;;;;10.67;53.64;102255.97;4972824;28;45475;-69
2022/04/17 03:37:16;;;;;;;;;4.50;3.75;;;;;10.63;54.08;102251.66;4973480;28;45276;-69
2022/04/17 03:39:42;;;;;;;;;7.50;4.00;;;;;10.62;53.80;102254.34;4969770;28;45558;-69
2022/04/17 03:42:07;;;;;;;;;3.00;3.00;;;;;10.61;54.20;102252.59;4966996;28;45687;-69
2022/04/17 03:44:35;;;;;;;;;3.00;3.00;;;;;10.58;53.73;102250.03;4973972;28;45493;-69
2022/04/17 03:47:01;;;;;;;;;5.00;4.00;;;;;10.54;53.90;102249.19;4971329;28;45605;-69
2022/04/17 03:49:29;;;;;;;;;3.25;3.00;;;;;10.51;53.76;102251.03;4971923;28;45551;-69
2022/04/17 03:51:55;;;;;;;;;3.50;3.50;;;;;10.47;53.61;102247.59;4972599;28;45814;-69
2022/04/17 03:54:20;;;;;;;;;7.25;3.75;;;;;10.46;53.45;102253.75;4971231;28;45303;-69
2022/04/17 03:56:47;;;;;;;;;6.50;4.00;;;;;10.44;53.91;102258.19;4971448;28;45257;-69
2022/04/17 03:59:13;;;;;;;;;5.00;4.00;;;;;10.40;54.08;102253.88;4959491;28;46432;-69
2022/04/17 04:01:38;;;;;;;;;4.50;3.50;;;;;10.37;54.55;102256.53;4971056;28;46007;-69
2022/04/17 04:04:06;;;;;;;;;6.25;3.50;;;;;10.33;53.75;102260.09;5043304;28;47127;-69
2022/04/17 04:06:31;;;;;;;;;4.00;4.00;;;;;10.30;53.79;102250.53;4978832;27;45457;-69
2022/04/17 04:08:57;;;;;;;;;3.00;3.00;;;;;10.28;53.87;102252.31;4970565;28;46216;-69
2022/04/17 04:11:22;;;;;;;;;4.00;4.00;;;;;10.26;53.67;102250.59;4969132;28;60520;-69
2022/04/17 04:13:47;;;;;;;;;5.00;3.50;;;;;10.20;53.70;102246.28;4969828;28;45399;-70
2022/04/17 04:16:14;;;;;;;;;3.00;3.00;;;;;10.19;53.66;102245.44;4972477;28;45331;-71
2022/04/17 04:18:39;;;;;;;;;3.00;3.00;;;;;10.19;53.42;102247.19;4968723;28;46089;-69
2022/04/17 04:21:05;;;;;;;;;4.00;4.00;;;;;10.15;53.37;102251.63;4976803;28;45607;-69
2022/04/17 04:23:34;;;;;;;;;1.25;1.25;;;;;10.11;53.80;102246.44;4998472;28;45466;-69
2022/04/17 04:26:00;;;;;;;;;3.50;3.50;;;;;10.09;53.62;102251.72;4970234;28;45383;-69
2022/04/17 04:28:38;;;;;;;;;4.75;4.00;;;;;10.05;53.69;102247.41;4980730;28;46209;-69
2022/04/17 04:31:06;;;;;;;;;3.50;3.50;;;;;10.02;53.50;102242.19;4971784;28;45408;-68
2022/04/17 04:33:32;;;;;;;;;3.25;3.00;;;;;10.00;53.98;102241.38;4976725;28;45462;-69
2022/04/17 04:35:59;;;;;;;;;2.25;2.25;;;;;9.96;53.66;102236.19;4970101;28;45365;-69
2022/04/17 04:38:24;;;;;;;;;6.50;2.75;;;;;9.93;53.65;102237.13;4969413;28;46208;-69
2022/04/17 04:40:50;;;;;;;;;3.50;3.00;;;;;9.88;53.64;102245.06;4970698;28;45380;-69
2022/04/17 04:43:16;;;;;;;;;3.00;3.00;;;;;9.88;53.41;102231.06;4972179;28;54155;-69
2022/04/17 04:51:09;;;;;;;;;3.25;3.00;;;;;9.82;53.82;102241.69;4971523;28;45450;-69
2022/04/17 04:53:34;;;;;;;;;3.50;3.50;;;;;9.81;53.71;102237.28;4972298;28;45463;-69
2022/04/17 04:56:00;;;;;;;;;4.00;4.00;;;;;9.81;53.59;102242.53;4972383;28;45532;-69
2022/04/17 04:58:25;;;;;;;;;3.00;3.00;;;;;9.80;53.63;102238.19;4984032;28;45571;-69
2022/04/17 05:00:50;;;;;;;;;5.25;5.25;;;;;9.79;53.29;102239.94;4970836;28;49017;-69
2022/04/17 05:03:15;;;;;;;;;4.00;4.00;;;;;9.79;53.06;102246.97;4977613;28;49404;-69
2022/04/17 05:05:41;;;;;;;;;6.25;4.00;;;;;9.78;53.26;102240.84;4975883;28;45300;-69
2022/04/17 05:08:06;;;;;;;;;5.67;3.00;;;;;9.78;53.19;102243.47;4984656;28;55437;-69
2022/04/17 05:10:32;;;;;;;;;2.50;2.50;;;;;9.79;53.50;102245.22;4973140;28;45378;-69
2022/04/17 05:12:57;;;;;;;;;5.00;3.75;;;;;9.80;53.88;102251.31;4978279;28;45475;-69
2022/04/17 05:15:22;;;;;;;;;4.67;3.00;;;;;9.80;53.69;102246.06;4979833;28;58717;-69
2022/04/17 05:17:48;;;;;;;;;4.00;3.00;;;;;9.79;53.23;102250.47;4999235;28;45496;-69
2022/04/17 05:20:14;;;;;;;;;3.75;3.75;;;;;9.80;53.68;102254.81;4972606;28;45353;-69
2022/04/17 05:22:39;;;;;;;;;6.25;5.25;;;;;9.82;53.05;102249.56;4971872;28;45533;-69
2022/04/17 05:25:05;;;;;;;;;6.25;5.50;;;;;9.84;53.82;102260.91;4977657;28;45306;-69
2022/04/17 05:27:31;;;;;;;;;8.75;4.00;;;;;9.85;53.96;102262.63;4972269;28;46203;-69
2022/04/17 05:29:56;;;;;;;;;4.00;4.00;;;;;9.84;53.99;102255.63;4972520;28;52087;-69
2022/04/17 05:32:21;;;;;;;;;3.25;3.25;;;;;9.85;53.75;102257.38;4978956;28;47347;-69
2022/04/17 05:34:47;;;;;;;;;3.50;3.00;;;;;9.87;53.51;102266.97;4973048;28;45556;-68
2022/04/17 05:37:12;;;;;;;;;2.50;2.50;;;;;9.90;53.12;102268.66;4976462;28;46538;-69
2022/04/17 05:39:37;;;;;;;;;3.00;3.00;;;;;9.92;53.16;102269.53;4973095;28;45283;-69
2022/04/17 05:42:03;;;;;;;;;5.75;4.00;;;;;9.96;53.42;102272.97;4970052;28;45477;-69
2022/04/17 05:44:28;;;;;;;;;7.00;6.00;;;;;9.98;53.55;102261.56;4976587;28;45351;-69
2022/04/17 05:46:56;;;;;;;;;4.00;4.00;;;;;10.02;53.87;102265.84;4982908;28;45412;-69
2022/04/17 05:49:21;;;;;;;;;3.75;3.25;;;;;10.03;52.60;102264.97;4973640;28;45337;-69
2022/04/17 05:51:47;;;;;;;;;5.75;5.25;;;;;10.07;52.61;102266.63;4973943;28;45537;-69
2022/04/17 05:54:13;;;;;;;;;4.75;4.00;;;;;10.11;52.33;102263.06;4972679;28;45436;-69
2022/04/17 05:56:38;;;;;;;;;6.00;3.00;;;;;10.15;52.02;102258.63;4971686;28;46195;-69
2022/04/17 05:59:05;;;;;;;;;3.50;3.50;;;;;10.18;51.52;102261.22;4975942;28;46091;-69
2022/04/17 06:01:30;;;;;;;;;8.75;4.00;;;;;10.23;51.23;102258.50;4984660;28;45516;-69
2022/04/17 06:03:56;;;;;;;;;3.50;2.75;;;;;10.29;51.21;102261.94;4980927;28;45330;-69
2022/04/17 06:06:21;;;;;;;;;5.25;4.00;;;;;10.34;51.36;102254.84;4976653;28;45520;-69
2022/04/17 06:08:47;;;;;;;;;3.50;3.00;;;;;10.39;50.82;102258.25;4976565;28;45533;-69
2022/04/17 06:11:12;;;;;;;;;9.75;4.00;;;;;10.46;50.66;102264.25;4973484;28;45462;-68
2022/04/17 06:13:38;;;;;;;;;4.00;3.00;;;;;10.53;50.84;102270.25;4971282;28;45436;-69
2022/04/17 06:16:04;;;;;;;;;4.75;3.00;;;;;10.58;50.51;102266.66;4974601;28;45448;-68
2022/04/17 06:18:29;;;;;;;;;7.00;4.00;;;;;10.63;50.25;102259.56;4977418;28;45310;-68
2022/04/17 06:20:55;;;;;;;;;3.25;3.25;;;;;10.69;49.94;102262.06;4971813;28;45493;-68
2022/04/17 06:23:20;;;;;;;;;4.00;4.00;;;;;10.75;50.14;102265.47;4972369;28;45535;-68
2022/04/17 06:25:45;;;;;;;;;6.50;5.00;;;;;10.80;49.70;102261.84;4976067;28;45370;-68
2022/04/17 06:28:11;;;;;;;;;5.75;4.00;;;;;10.86;49.36;102263.53;4983292;28;45548;-68
2022/04/17 06:30:36;;;;;;;;;5.25;4.00;;;;;10.94;49.76;102262.44;4972831;28;45471;-68
2022/04/17 06:33:02;;;;;;;;;3.00;3.00;;;;;11.02;49.42;102257.06;4972608;28;45490;-68
2022/04/17 06:35:27;;;;;;;;;4.00;2.50;;;;;11.10;49.41;102252.47;4974165;28;45505;-68
2022/04/17 06:38:00;;;;;;;;;5.50;3.00;;;;;11.19;49.19;102257.56;4971896;28;45719;-68
2022/04/17 06:40:36;;;;;;;;;5.25;3.00;;;;;11.29;49.15;102263.50;4985132;28;45426;-68
2022/04/17 06:43:05;;;;;;;;;5.00;4.00;;;;;11.31;48.58;102259.06;4980247;28;45446;-68
2022/04/17 06:45:33;;;;;;;;;4.00;4.00;;;;;11.39;48.86;102264.16;4979575;28;46125;-68
2022/04/17 06:48:10;;;;;;;;;6.75;4.00;;;;;11.49;48.99;102258.66;4977076;28;45849;-68
2022/04/17 06:50:35;;;;;;;;;6.75;4.00;;;;;11.62;48.83;102259.25;4973589;28;45343;-68
2022/04/17 06:53:01;;;;;;;;;4.25;4.00;;;;;11.81;48.65;102264.09;4971626;28;45376;-68
2022/04/17 06:55:26;;;;;;;;;4.50;4.25;;;;;11.93;47.69;102255.91;4972431;28;47142;-68
2022/04/17 06:57:52;;;;;;;;;4.50;4.00;;;;;12.07;48.10;102253.81;4972539;28;45500;-68
2022/04/17 07:00:18;;;;;;;;;7.50;5.50;;;;;12.24;47.76;102259.53;4972973;28;46290;-69
2022/04/17 07:02:44;;;;;;;;;8.25;4.00;;;;;12.39;47.46;102255.63;4964702;28;45455;-68
2022/04/17 07:05:12;;;;;;;;;4.75;4.75;;;;;12.44;47.28;102252.88;4973459;28;45392;-69
2022/04/17 07:07:38;;;;;;;;;9.50;4.50;;;;;12.42;47.10;102252.88;4971592;28;45859;-69
2022/04/17 07:10:04;;;;;;;;;5.00;4.00;;;;;12.45;46.90;102238.78;4971189;28;45450;-68
2022/04/17 07:12:29;;;;;;;;;6.00;5.00;;;;;12.52;46.62;102235.06;4971771;28;45572;-68
2022/04/17 07:14:55;;;;;;;;;4.75;4.00;;;;;12.59;46.70;102230.50;4974518;28;46283;-69
2022/04/17 07:17:20;;;;;;;;;8.00;6.00;;;;;12.66;46.64;102232.06;4973258;28;45811;-68
2022/04/17 07:19:46;;;;;;;;;4.75;3.50;;;;;12.72;46.45;102226.59;4971402;28;45569;-68
2022/04/17 07:22:13;;;;;;;;;6.50;3.75;;;;;12.82;46.82;102224.56;5000912;28;45567;-68
2022/04/17 07:24:43;;;;;;;;;4.25;4.25;;;;;12.90;46.76;102214.69;4971086;28;46360;-68
2022/04/17 07:27:11;;;;;;;;;6.00;4.00;;;;;13.19;46.81;102221.72;5021989;28;45953;-69
2022/04/17 07:29:37;;;;;;;;;4.50;4.50;;;;;13.34;46.43;102217.78;4988783;27;45742;-69
2022/04/17 07:32:03;;;;;;;;;6.00;5.00;;;;;13.38;46.09;102212.38;4995456;27;45421;-69
2022/04/17 07:34:28;;;;;;;;;5.00;5.00;;;;;13.40;46.24;102214.94;4987106;27;46623;-70
2022/04/17 07:36:54;;;;;;;;;8.50;6.25;;;;;13.39;46.18;102202.66;4986855;28;45511;-70
2022/04/17 07:39:22;;;;;;;;;4.00;4.00;;;;;13.39;46.27;102203.53;5003462;28;45479;-70
2022/04/17 07:41:48;;;;;;;;;6.00;4.00;;;;;13.45;45.86;102203.31;4973974;28;45407;-69
2022/04/17 07:44:14;;;;;;;;;4.50;4.50;;;;;13.54;45.28;102207.47;4975506;28;47469;-70
2022/04/17 07:46:42;;;;;;;;;7.00;5.00;;;;;13.62;45.28;102201.91;4976035;28;45433;-69
2022/04/17 07:49:09;;;;;;;;;5.50;5.50;;;;;13.72;45.19;102200.72;4973740;28;45577;-70
2022/04/17 07:51:35;;;;;;;;;5.75;5.00;;;;;13.83;45.57;102196.81;4969184;28;45492;-70
2022/04/17 07:54:01;;;;;;;;;5.00;5.00;;;;;13.95;45.00;102203.47;4972071;28;46151;-69
2022/04/17 07:56:27;;;;;;;;;7.75;4.25;;;;;14.04;44.85;102187.31;4975025;28;45279;-68
2022/04/17 07:58:52;;;;;;;;;8.25;6.00;;;;;14.16;44.98;102196.59;4978670;28;45355;-69
2022/04/17 08:01:19;;;;;;;;;5.75;5.75;;;;;14.31;43.88;102197.84;4992871;28;45509;-69
2022/04/17 08:06:10;;;;;;;;;4.25;3.25;;;;;14.76;43.92;102197.09;4970410;28;45596;-69
2022/04/17 08:08:42;;;;;;;;;6.00;5.75;;;;;14.91;43.06;102193.03;4971600;28;45442;-69
2022/04/17 08:11:09;;;;;;;;;5.00;4.00;;;;;15.08;43.32;102190.59;4988559;28;45290;-69
2022/04/17 08:13:35;;;;;;;;;4.75;3.00;;;;;15.34;42.65;102195.72;4975726;28;45498;-69
2022/04/17 08:16:04;;;;;;;;;5.00;5.00;;;;;15.51;42.00;102178.31;4997506;28;45642;-69
2022/04/17 08:18:30;;;;;;;;;2.25;2.25;;;;;15.66;41.05;102180.38;5013497;28;45483;-69
2022/04/17 08:20:55;;;;;;;;;4.50;4.50;;;;;15.85;41.23;102183.09;4996429;28;45408;-70
2022/04/17 08:23:20;;;;;;;;;5.25;4.50;;;;;15.95;40.68;102168.53;4972429;28;58474;-69
2022/04/17 08:25:46;;;;;;;;;3.75;3.75;;;;;16.06;40.43;102166.28;4975421;28;59145;-69
2022/04/17 08:28:12;;;;;;;;;5.75;3.75;;;;;16.25;40.00;102163.72;4975519;28;45535;-69
2022/04/17 08:30:37;;;;;;;;;5.75;4.75;;;;;16.55;39.25;102158.84;4988458;28;45700;-69
2022/04/17 08:33:06;;;;;;;;;3.00;3.00;;;;;16.93;39.80;102161.53;4980029;28;45996;-69
2022/04/17 08:35:32;;;;;;;;;4.75;4.75;;;;;17.39;38.69;102146.91;4995511;27;45531;-69
2022/04/17 08:38:00;;;;;;;;;3.75;2.75;;;;;18.29;38.11;102144.13;4971088;28;45434;-68
2022/04/17 08:40:29;;;;;;;;;3.50;3.50;;;;;19.40;37.16;102150.44;4974836;28;45422;-70
2022/04/17 08:42:56;;;;;;;;;3.00;2.00;;;;;21.40;36.16;102153.25;4977534;28;46006;-69
2022/04/17 08:45:22;;;;;;;;;3.50;3.50;;;;;23.01;33.79;102151.00;4984917;28;45710;-69
2022/04/17 08:47:47;;;;;;;;;3.00;3.00;;;;;24.58;33.94;102137.28;4987918;28;45572;-69
2022/04/17 08:50:15;;;;;;;;;5.00;3.50;;;;;27.43;32.09;102138.75;4974824;28;45557;-69
2022/04/17 08:52:45;;;;;;;;;3.25;3.00;;;;;30.38;30.79;102135.78;4997007;28;46388;-69
2022/04/17 08:55:10;;;;;;;;;4.00;3.00;;;;;33.09;28.30;102138.28;5004716;28;45633;-70
2022/04/17 08:57:35;;;;;;;;;4.75;4.00;;;;;35.80;26.00;102141.22;4973858;27;45482;-70
2022/04/17 09:00:08;;;;;;;;;4.00;4.00;;;;;38.47;23.85;102142.53;4972499;28;45963;-70
2022/04/17 09:02:34;;;;;;;;;3.25;3.25;;;;;40.61;22.35;102141.50;4979966;28;46085;-69
2022/04/17 09:05:03;;;;;;;;;4.00;3.00;;;;;42.11;21.21;102136.78;4968881;28;45519;-70
2022/04/17 09:08:03;;;;;;;;;3.50;3.00;;;;;43.67;18.98;102144.78;4969144;28;45369;-69
2022/04/17 09:10:33;;;;;;;;;2.25;2.25;;;;;44.75;17.66;102146.00;4992667;28;45580;-70
2022/04/17 09:13:00;;;;;;;;;1.75;1.00;;;;;45.76;17.52;102136.91;4968665;28;46174;-70
2022/04/17 09:15:34;;;;;;;;;3.00;3.00;;;;;46.82;17.00;102132.06;4972111;28;45743;-70
2022/04/17 09:18:00;;;;;;;;;2.00;2.00;;;;;47.67;16.32;102137.97;4968449;28;45450;-70
2022/04/17 09:20:27;;;;;;;;;2.75;1.00;;;;;48.45;14.66;102136.56;4969995;28;45526;-69
2022/04/17 09:22:54;;;;;;;;;4.00;1.75;;;;;48.48;15.09;102133.22;4972596;28;46217;-70
2022/04/17 09:25:25;;;;;;;;;1.00;1.00;;;;;47.79;14.37;102130.13;4973698;28;45573;-70
2022/04/17 09:28:04;;;;;;;;;2.50;2.50;;;;;46.93;14.18;102131.00;4976148;28;45879;-70
2022/04/17 09:30:32;;;;;;;;;3.00;1.50;;;;;46.02;13.99;102123.16;4972647;28;45647;-70
2022/04/17 09:33:13;;;;;;;;;3.25;1.50;;;;;45.01;14.45;102118.53;4969096;28;46414;-70
2022/04/17 09:35:39;;;;;;;;;4.25;3.00;;;;;43.80;15.23;102121.41;4971809;28;45444;-70
2022/04/17 09:38:07;;;;;;;;;3.25;3.25;;;;;42.35;14.37;102110.81;4972115;28;45609;-70
2022/04/17 09:40:33;;;;;;;;;2.50;2.50;;;;;40.90;15.01;102111.41;4971664;28;45909;-70
2022/04/17 09:43:13;;;;;;;;;1.50;1.50;;;;;39.74;15.03;102120.66;4973405;28;46978;-70
2022/04/17 09:46:01;;;;;;;;;2.50;2.50;;;;;38.70;15.87;102111.81;4971878;28;45453;-70
2022/04/17 09:48:44;;;;;;;;;3.25;3.25;;;;;38.05;16.14;102103.56;4972743;28;45591;-71
2022/04/17 09:51:26;;;;;;;;;3.75;2.50;;;;;37.51;17.09;102104.69;4972239;28;45407;-70
2022/04/17 09:54:06;;;;;;;;;3.25;3.00;;;;;36.85;16.57;102102.66;4972716;28;45376;-70
2022/04/17 09:56:32;;;;;;;;;1.00;1.00;;;;;36.30;16.72;102093.59;4970239;28;45620;-70
2022/04/17 09:58:57;;;;;;;;;3.00;1.00;;;;;35.96;17.14;102099.06;4972451;28;45647;-71
2022/04/17 10:01:24;;;;;;;;;3.25;3.25;;;;;35.97;17.26;102098.03;4973299;28;45786;-70
2022/04/17 10:03:50;;;;;;;;;1.50;1.00;;;;;35.97;17.13;102095.28;4973032;28;46335;-70
2022/04/17 10:06:16;;;;;;;;;2.00;2.00;;;;;35.85;16.70;102089.50;4972088;28;45439;-70
2022/04/17 10:08:43;;;;;;;;;3.00;3.00;;;;;35.71;16.79;102077.66;4972033;28;45307;-70
2022/04/17 10:11:09;;;;;;;;;2.00;2.00;;;;;35.60;16.60;102074.59;4971750;28;45514;-70
2022/04/17 10:13:36;;;;;;;;;4.00;2.00;;;;;35.62;17.15;102073.38;4971738;28;46260;-70
2022/04/17 10:16:06;;;;;;;;;1.50;1.50;;;;;35.80;16.93;102067.38;4972817;28;45586;-70
2022/04/17 10:18:36;;;;;;;;;2.00;2.00;;;;;35.55;16.87;102064.25;4972207;28;45464;-70
2022/04/17 10:21:03;;;;;;;;;2.75;2.50;;;;;34.89;17.34;102072.66;4971890;28;45560;-70
2022/04/17 10:23:29;;;;;;;;;2.25;1.00;;;;;34.16;17.53;102062.72;4972370;28;46255;-70
2022/04/17 10:26:00;;;;;;;;;2.50;2.50;;;;;33.31;17.52;102054.84;4970563;28;45646;-70
2022/04/17 10:28:32;;;;;;;;;2.00;2.00;;;;;32.73;18.02;102051.69;4970451;28;45362;-70
2022/04/17 10:31:17;;;;;;;;;4.50;4.25;;;;;31.98;17.81;102056.78;4973586;28;45389;-70
2022/04/17 10:33:58;;;;;;;;;3.75;2.00;;;;;31.22;18.04;102049.84;4970604;28;47367;-70
2022/04/17 10:36:44;;;;;;;;;2.25;2.25;;;;;30.74;18.78;102048.78;4970587;28;45399;-70
2022/04/17 10:39:38;;;;;;;;;1.75;1.75;;;;;30.46;19.03;102042.75;4971960;28;45738;-70
2022/04/17 10:42:07;;;;;;;;;9.00;6.00;;;;;30.22;18.91;102040.78;4967057;28;47680;-70
2022/04/17 10:44:37;;;;;;;;;4.25;3.50;;;;;29.96;19.12;102024.53;4969803;28;46336;-70
2022/04/17 10:47:04;;;;;;;;;1.25;1.25;;;;;29.73;19.00;102029.69;4971196;28;45850;-70
2022/04/17 10:49:29;;;;;;;;;2.00;2.00;;;;;29.46;19.66;102025.25;4970698;28;45514;-70
2022/04/17 10:51:57;;;;;;;;;4.00;3.00;;;;;29.12;19.96;102018.69;4973039;28;45849;-70
2022/04/17 10:54:23;;;;;;;;;2.75;2.25;;;;;28.92;19.77;102019.88;4971096;28;47025;-70
2022/04/17 10:56:55;;;;;;;;;3.25;2.50;;;;;28.80;19.73;102013.81;4971409;28;45857;-70
2022/04/17 10:59:21;;;;;;;;;4.50;4.50;;;;;28.59;19.52;102011.41;4971048;28;45283;-70
2022/04/17 11:01:52;;;;;;;;;2.00;2.00;;;;;28.35;19.87;102000.34;4971524;28;45282;-70
2022/04/17 11:04:23;;;;;;;;;2.00;2.00;;;;;28.28;20.08;101989.22;4969207;28;47116;-70
2022/04/17 11:07:04;;;;;;;;;15.75;14.75;;;;;28.18;20.51;101998.38;4971330;28;45592;-70
2022/04/17 11:09:30;;;;;;;;;4.25;4.00;;;;;28.04;20.73;101986.25;4971350;28;45510;-70
2022/04/17 11:12:11;;;;;;;;;3.50;3.50;;;;;27.92;20.71;101992.81;4971104;28;45425;-70
2022/04/17 11:14:39;;;;;;;;;5.25;3.00;;;;;27.67;20.10;101988.88;4971106;28;46422;-70
2022/04/17 11:17:08;;;;;;;;;3.00;3.00;;;;;27.60;20.63;101985.09;4970819;28;45593;-71
2022/04/17 11:19:36;;;;;;;;;2.25;2.25;;;;;27.53;20.37;101985.69;4967686;28;45796;-71
2022/04/17 11:22:04;;;;;;;;;5.00;4.50;;;;;27.42;20.71;101974.22;4971319;28;45434;-69
2022/04/17 11:24:55;;;;;;;;;4.75;3.25;;;;;27.29;20.99;101975.34;4969324;28;48389;-69
2022/04/17 11:27:41;;;;;;;;;4.00;3.25;;;;;27.14;20.67;101973.25;4958927;28;45816;-70
2022/04/17 11:30:08;;;;;;;;;2.50;2.50;;;;;27.05;20.72;101961.47;4962813;28;45508;-69
2022/04/17 11:32:34;;;;;;;;;3.75;3.25;;;;;26.98;20.42;101965.69;4973249;28;45578;-69
2022/04/17 11:35:04;;;;;;;;;5.25;5.00;;;;;26.92;20.43;101955.47;4971210;28;45974;-69
2022/04/17 11:37:31;;;;;;;;;3.00;3.00;;;;;26.79;20.76;101955.78;4994166;28;45733;-70
2022/04/17 11:39:58;;;;;;;;;3.75;3.75;;;;;26.79;21.02;101956.63;4971038;28;45473;-71
2022/04/17 11:42:28;;;;;;;;;16.25;13.00;;;;;26.82;21.10;101947.41;4971221;28;47697;-70